Rosebud, MT (59347)

5:34 AM MDT on August 30, 2014 (GMT -0600)
Water Plant | Change Station
CLOSE
Current Station
Personal Weather Station
Location: Colstrip, MT
Elevation: 3255 ft
Nearby Weather Stations

Elev 3255 ft 45.89 °N, 106.63 °W | Updated 45 seconds ago

Clear
Clear
59.9 °F
Feels Like 59.9 °F
N
3.0
Wind Variable Wind from ESE
Gusts 6.0 mph

Today
High -- | Low -- °F
--% Chance of Precip.
Yesterday
High -- | Low -- °F
Precip. -- in
6:24 AM 7:47 PM
Waxing Crescent, 21% visible
Pressure 29.76 in
Visibility 10.0 miles
Clouds Clear
Dew Point 52 °F
Humidity 74%
Rainfall 0.00 in
Snow Depth Not available.
UV 0 out of 12
Pollen 9.10 out of 12
Air Quality Not available.
Flu Activity Not available.
METAR KMLS 301053Z AUTO 15015G21KT 10SM CLR 16/11 A2980 RMK AO2 SLP078 T01610106

More Conditions Fewer Conditions

Pressure 29.76 in
Visibility 10.0 miles
Clouds Clear
Dew Point 52 °F
Humidity 74%
Rainfall 0.00 in
Snow Depth Not available.
UV 0 out of 12
Pollen 9.10 out of 12
Air Quality Not available.
Flu Activity Not available.
METAR KMLS 301053Z AUTO 15015G21KT 10SM CLR 16/11 A2980 RMK AO2 SLP078 T01610106

More Conditions Fewer Conditions

10-Day Weather Forecast

Almanac

Astronomy

Aug. 30, 2014 Rise Set
Actual Time 6:24 AM MDT 7:47 PM MDT
Civil Twilight 5:53 AM MDT 8:18 PM MDT
Nautical Twilight 5:15 AM MDT 8:56 PM MDT
Astronomical Twilight 4:35 AM MDT 9:36 PM MDT
Moon 11:32 AM MDT 10:05 PM MDT
Length of Visible Light 14h 25m
Length of Day
13h 23m
Tomorrow will be 3m 6s shorter.
Waxing Crescent, 21% of the Moon is Illuminated
Today
Waxing Crescent
Sep 2
First Quarter
Sep 8
Full
Sep 15
Last Quarter
Sep 24
New

Today's Extremes

State Highs State Lows

Community

WunderPhotos

Upload Photos

1,748,492 photos uploaded!

WunderBlogs® & News

By Dr. Jeff Masters
Director of Meteorology, Weather Underground
By Kari Strenfel
Meteorologist, Weather Underground
By Christopher C. Burt
Weather Historian, Weather Underground
August 30, 2014
August 30, 2014
August 30, 2014

Nearby

Snow Depth

Station Depth Elevation
Cole Creek 0 in 7850 ft
Crystal Lake 0 in 6050 ft
White Mill 2 in 8700 ft
Placer Basin 0 in 8830 ft
Northeast Entrance 0 in 7350 ft

Earthquake Activity

City Distance Mag. Time & Date
No recent earthquake activity has been reported nearby.
Minimum magnitude displayed is 2.5.

Coastal Water Temperatures

Place Temperature
No Stations Reporting

Nearby Weather Stations